Terminal Aerodrome Forecast
Issued by NWS

Home | Current Version | Previous Version | Text Only | Print | Product List | Glossary On
Versions: 1 2 3 4 5 6 7 8 9 10 11 12 13 14 15 16 17 18 19 20
000
FTUS43 KGRB 222300 RRA
TAFATW
TAF
KATW 222341Z 2300/2324 10011G17KT 4SM -SN BR SCT005 OVC012
      TEMPO 2300/2303 1SM -SN OVC005
     FM230300 07013G20KT 4SM -RASN BR SCT005 OVC010
      TEMPO 2303/2306 1SM -SN OVC005
     FM230600 06014G22KT 2SM -RASN BR OVC005
     FM231300 07012KT 3SM -RASN BR OVC005
      TEMPO 2313/2317 3/4SM -SN
     FM231700 07008KT 2SM -DZ BR OVC003=

USA.gov is the U.S. government's official web portal to all federal, state and local government web resources and services.